createdAt,value
2019-02-11T00:02:38.722Z,5.10
2019-02-11T00:07:43.774Z,5.20
2019-02-11T00:12:48.809Z,5.30
2019-02-11T00:17:53.897Z,5.30
2019-02-11T00:22:59.217Z,5.30
2019-02-11T00:28:04.252Z,5.20
2019-02-11T00:33:09.332Z,5.20
2019-02-11T00:38:14.370Z,5.10
2019-02-11T00:43:19.561Z,5.00
2019-02-11T00:48:24.858Z,5.00
2019-02-11T00:53:29.909Z,5.10
2019-02-11T00:58:34.960Z,5.20
2019-02-11T01:03:39.987Z,5.20
2019-02-11T01:08:45.036Z,5.10
2019-02-11T01:13:51.561Z,5.00
2019-02-11T01:18:56.722Z,4.80
2019-02-11T01:24:01.769Z,4.70
2019-02-11T01:29:06.789Z,4.70
2019-02-11T01:34:11.813Z,4.70
2019-02-11T01:39:16.849Z,4.70
2019-02-11T01:44:21.863Z,4.80
2019-02-11T01:49:26.879Z,4.80
2019-02-11T01:54:31.956Z,4.90
2019-02-11T01:59:37.000Z,4.90
2019-02-11T02:04:42.049Z,4.90
2019-02-11T02:09:47.076Z,5.00
2019-02-11T02:14:52.106Z,4.90
2019-02-11T02:19:57.141Z,4.90
2019-02-11T02:25:02.162Z,4.90
2019-02-11T02:30:08.386Z,4.90
2019-02-11T02:35:13.411Z,4.90
2019-02-11T02:40:18.480Z,4.90
2019-02-11T02:45:23.510Z,4.90
2019-02-11T02:50:28.548Z,4.80
2019-02-11T02:55:33.641Z,4.80
2019-02-11T03:00:38.983Z,4.80
2019-02-11T03:05:44.020Z,4.90
2019-02-11T03:10:49.080Z,5.00
2019-02-11T03:15:54.098Z,5.10
2019-02-11T03:20:59.153Z,5.30
2019-02-11T03:26:04.203Z,5.30
2019-02-11T03:31:09.263Z,5.30
2019-02-11T03:36:14.329Z,5.30
2019-02-11T03:41:19.694Z,5.30
2019-02-11T03:46:24.745Z,5.20
2019-02-11T03:51:29.766Z,5.20
2019-02-11T03:56:34.857Z,5.20
2019-02-11T04:01:39.874Z,5.30
2019-02-11T04:06:44.914Z,5.40
2019-02-11T04:11:51.425Z,5.50
2019-02-11T04:16:56.454Z,5.50
2019-02-11T04:22:08.900Z,5.50
2019-02-11T04:27:13.926Z,5.40
2019-02-11T04:32:19.126Z,5.40
2019-02-11T04:37:24.178Z,5.40
2019-02-11T04:42:29.206Z,5.40
2019-02-11T04:47:34.295Z,5.30
2019-02-11T04:52:39.315Z,5.20
2019-02-11T04:57:44.357Z,5.10
2019-02-11T05:02:49.491Z,5.00
2019-02-11T05:07:54.534Z,4.90
2019-02-11T05:13:01.365Z,4.90
2019-02-11T05:18:06.397Z,4.90
2019-02-11T05:23:11.536Z,4.80
2019-02-11T05:28:16.553Z,4.90
2019-02-11T05:33:21.695Z,4.90
2019-02-11T05:38:26.725Z,4.90
2019-02-11T05:43:31.865Z,4.90
2019-02-11T05:48:36.892Z,5.00
2019-02-11T05:53:41.928Z,4.90
2019-02-11T05:58:47.010Z,4.80
2019-02-11T06:03:52.045Z,4.60
2019-02-11T06:08:57.267Z,4.60
2019-02-11T06:14:02.327Z,4.60
2019-02-11T06:19:07.345Z,4.60
2019-02-11T06:24:12.380Z,4.60
2019-02-11T06:29:19.000Z,4.60
2019-02-11T06:34:24.226Z,4.70
2019-02-11T06:39:29.270Z,4.70
2019-02-11T06:44:34.298Z,4.60
2019-02-11T06:49:39.339Z,4.60
2019-02-11T06:54:44.364Z,4.70
2019-02-11T06:59:49.467Z,4.70
2019-02-11T07:04:54.506Z,4.70
2019-02-11T07:09:59.556Z,4.70
2019-02-11T07:15:04.918Z,4.80
2019-02-11T07:20:10.553Z,4.90
2019-02-11T07:25:16.695Z,4.90
2019-02-11T07:30:21.893Z,4.80
2019-02-11T07:35:26.903Z,4.70
2019-02-11T07:40:31.937Z,4.60
2019-02-11T07:45:43.112Z,4.70
2019-02-11T07:50:48.119Z,4.70
2019-02-11T07:55:53.122Z,4.80
2019-02-11T08:00:58.171Z,4.80
2019-02-11T08:06:03.187Z,4.80
2019-02-11T08:11:08.204Z,4.80
2019-02-11T08:16:13.235Z,4.90
2019-02-11T08:21:18.356Z,5.00
2019-02-11T08:26:23.329Z,5.20
2019-02-11T08:31:28.323Z,5.60
2019-02-11T08:36:33.370Z,5.70
2019-02-11T08:41:38.406Z,5.60
2019-02-11T08:46:43.427Z,5.50
2019-02-11T08:51:49.597Z,5.60
2019-02-11T08:56:54.624Z,5.60
2019-02-11T09:01:59.639Z,5.50
2019-02-11T09:07:05.113Z,5.60
2019-02-11T09:12:10.265Z,5.70
2019-02-11T09:17:15.272Z,5.90
2019-02-11T09:22:20.372Z,6.00
2019-02-11T09:27:25.395Z,6.00
2019-02-11T09:32:30.405Z,6.10
2019-02-11T09:37:36.716Z,6.50
2019-02-11T09:42:41.833Z,6.40
2019-02-11T09:47:46.894Z,6.50
2019-02-11T09:52:52.124Z,6.70
2019-02-11T09:57:57.208Z,6.90
2019-02-11T10:03:02.234Z,6.60
2019-02-11T10:08:07.249Z,6.50
2019-02-11T10:13:12.334Z,6.70
2019-02-11T10:18:17.343Z,6.80
2019-02-11T10:23:22.349Z,6.80
2019-02-11T10:28:27.348Z,6.80
2019-02-11T10:33:32.422Z,6.70
2019-02-11T10:38:37.419Z,6.80
2019-02-11T10:43:42.739Z,6.90
2019-02-11T10:48:47.737Z,7.00
2019-02-11T10:53:54.626Z,7.00
2019-02-11T10:58:59.662Z,6.90
2019-02-11T11:04:04.666Z,7.00
2019-02-11T11:09:14.462Z,7.10
2019-02-11T11:14:19.460Z,7.10
2019-02-11T11:19:24.435Z,7.30
2019-02-11T11:24:29.452Z,7.40
2019-02-11T11:29:34.452Z,7.40
2019-02-11T11:34:39.449Z,7.10
2019-02-11T11:39:44.465Z,7.20
2019-02-11T11:44:49.449Z,7.20
2019-02-11T11:49:54.456Z,7.20
2019-02-11T11:54:59.447Z,7.30
2019-02-11T12:00:07.899Z,7.30
2019-02-11T12:05:15.587Z,7.40
2019-02-11T12:10:19.976Z,7.40
2019-02-11T12:15:26.008Z,7.40
2019-02-11T12:20:33.390Z,7.10
2019-02-11T12:25:37.750Z,6.90
2019-02-11T12:30:43.038Z,7.00
2019-02-11T12:35:48.031Z,7.20
2019-02-11T12:40:53.326Z,7.40
2019-02-11T12:45:58.337Z,7.60
2019-02-11T12:51:03.351Z,7.40
2019-02-11T12:56:08.333Z,7.40
2019-02-11T13:01:13.360Z,7.60
2019-02-11T13:06:18.354Z,7.70
2019-02-11T13:11:23.626Z,7.70
2019-02-11T13:16:30.738Z,7.70
2019-02-11T13:21:35.728Z,7.70
2019-02-11T13:26:40.711Z,7.30
2019-02-11T13:31:47.163Z,7.30
2019-02-11T13:36:52.246Z,7.60
2019-02-11T13:41:57.241Z,7.50
2019-02-11T13:47:02.255Z,7.00
2019-02-11T13:52:07.244Z,6.80
2019-02-11T13:57:12.595Z,6.90
2019-02-11T14:02:17.852Z,7.10
2019-02-11T14:07:22.918Z,7.10
2019-02-11T14:12:28.278Z,6.60
2019-02-11T14:17:34.019Z,6.40
2019-02-11T14:22:39.109Z,6.40
2019-02-11T14:27:44.129Z,6.50
2019-02-11T14:32:49.560Z,6.50
2019-02-11T14:37:54.563Z,6.50
2019-02-11T14:42:59.587Z,6.50
2019-02-11T14:48:04.598Z,6.50
2019-02-11T14:53:09.564Z,6.40
2019-02-11T14:58:14.691Z,6.40
2019-02-11T15:03:19.688Z,6.40
2019-02-11T15:08:24.684Z,6.30
2019-02-11T15:13:34.311Z,6.30
2019-02-11T15:18:39.451Z,6.20
2019-02-11T15:23:44.902Z,6.10
2019-02-11T15:28:49.912Z,6.00
2019-02-11T15:33:54.928Z,5.90
2019-02-11T15:38:59.910Z,5.90
2019-02-11T15:44:04.915Z,6.00
2019-02-11T15:49:09.927Z,6.00
2019-02-11T15:54:14.975Z,5.90
2019-02-11T15:59:20.033Z,5.90
2019-02-11T16:04:25.065Z,5.90
2019-02-11T16:09:30.061Z,5.80
2019-02-11T16:14:35.089Z,5.60
2019-02-11T16:19:40.101Z,5.40
2019-02-11T16:24:45.108Z,5.20
2019-02-11T16:29:50.117Z,5.10
2019-02-11T16:34:55.094Z,4.80
2019-02-11T16:40:00.306Z,4.70
2019-02-11T16:45:06.144Z,4.70
2019-02-11T16:50:11.740Z,4.80
2019-02-11T16:55:16.761Z,4.80
2019-02-11T17:00:21.816Z,4.80
2019-02-11T17:05:26.815Z,4.70
2019-02-11T17:10:31.810Z,4.90
2019-02-11T17:15:38.699Z,4.90
2019-02-11T17:20:43.650Z,4.80
2019-02-11T17:25:48.941Z,4.70
2019-02-11T17:30:53.987Z,4.50
2019-02-11T17:35:58.980Z,4.40
2019-02-11T17:41:04.084Z,4.40
2019-02-11T17:46:09.058Z,4.20
2019-02-11T17:51:14.254Z,4.20
2019-02-11T17:56:19.249Z,4.20
2019-02-11T18:01:24.400Z,4.20
2019-02-11T18:06:29.389Z,4.20
2019-02-11T18:11:34.403Z,4.10
2019-02-11T18:16:39.439Z,3.90
2019-02-11T18:21:44.465Z,3.90
2019-02-11T18:26:49.456Z,4.10
2019-02-11T18:31:54.459Z,4.30
2019-02-11T18:36:59.743Z,4.50
2019-02-11T18:42:04.754Z,4.60
2019-02-11T18:47:09.745Z,4.70
2019-02-11T18:52:14.823Z,4.70
2019-02-11T18:57:19.812Z,4.80
2019-02-11T19:02:24.968Z,4.80
2019-02-11T19:07:29.971Z,4.80
2019-02-11T19:12:34.955Z,4.90
2019-02-11T19:17:41.052Z,4.90
2019-02-11T19:22:46.204Z,5.10
2019-02-11T19:27:51.181Z,5.20
2019-02-11T19:32:56.459Z,5.30
2019-02-11T19:38:01.441Z,5.20
2019-02-11T19:43:06.582Z,5.20
2019-02-11T19:48:11.571Z,5.20
2019-02-11T19:53:16.669Z,5.20
2019-02-11T19:58:21.649Z,5.20
2019-02-11T20:03:26.729Z,5.30
2019-02-11T20:08:31.723Z,5.20
2019-02-11T20:13:36.732Z,5.20
2019-02-11T20:18:41.751Z,5.20
2019-02-11T20:23:46.993Z,5.20
2019-02-11T20:28:52.176Z,5.20
2019-02-11T20:33:57.154Z,5.00
2019-02-11T20:39:02.160Z,4.80
2019-02-11T20:44:07.747Z,4.70
2019-02-11T20:49:12.766Z,4.40
2019-02-11T20:54:17.768Z,4.20
2019-02-11T20:59:22.763Z,4.00
2019-02-11T21:04:27.792Z,3.80
2019-02-11T21:09:32.795Z,3.50
2019-02-11T21:14:37.793Z,3.30
2019-02-11T21:19:42.800Z,3.30
2019-02-11T21:24:47.784Z,3.40
2019-02-11T21:29:52.784Z,3.50
2019-02-11T21:34:57.757Z,3.60
2019-02-11T21:40:02.738Z,3.80
2019-02-11T21:45:08.842Z,3.90
2019-02-11T21:50:14.945Z,4.00
2019-02-11T21:55:20.036Z,4.10
2019-02-11T22:00:25.018Z,4.20
2019-02-11T22:05:30.055Z,4.20
2019-02-11T22:10:35.043Z,4.20
2019-02-11T22:15:40.025Z,4.20
2019-02-11T22:20:45.019Z,4.00
2019-02-11T22:25:50.010Z,4.10
2019-02-11T22:30:55.025Z,4.10
2019-02-11T22:36:00.024Z,4.10
2019-02-11T22:41:05.017Z,4.10
2019-02-11T22:46:10.021Z,4.10
2019-02-11T22:51:15.072Z,4.10
2019-02-11T22:56:21.639Z,4.20
2019-02-11T23:01:28.254Z,4.20
2019-02-11T23:06:34.460Z,4.00
2019-02-11T23:11:40.991Z,3.60
2019-02-11T23:16:46.035Z,3.30
2019-02-11T23:21:51.864Z,3.00
2019-02-11T23:26:56.871Z,2.90
2019-02-11T23:32:01.864Z,2.90
2019-02-11T23:37:06.882Z,2.80
2019-02-11T23:42:11.874Z,2.80
2019-02-11T23:47:16.861Z,2.90
2019-02-11T23:52:21.856Z,3.00
2019-02-11T23:57:28.074Z,3.20
